Time;durP1;ratioP1;P1;durP2;ratioP2;P2;SDS_P1;SDS_P2;PMS_P1;PMS_P2;Temp;Humidity;BMP_temperature;BMP_pressure;BME280_temperature;BME280_humidity;BME280_pressure;Samples;Min_cycle;Max_cycle;Signal;HPM_P1;HPM_P2
2022/02/11 00:01:08;;;;;;;6.23;5.23;;;6.70;99.90;;;;;;5072513;28;20207;-67
2022/02/11 00:06:31;;;;;;;5.43;4.80;;;6.70;99.90;;;;;;5069680;28;20661;-69
2022/02/11 00:09:00;;;;;;;7.47;5.73;;;6.80;99.90;;;;;;5069520;28;20205;-67
2022/02/11 00:11:32;;;;;;;7.07;4.67;;;6.80;99.90;;;;;;5065307;28;20259;-67
2022/02/11 00:13:59;;;;;;;6.57;5.00;;;6.80;99.90;;;;;;5071915;28;20197;-67
2022/02/11 00:16:27;;;;;;;5.37;4.50;;;6.70;99.90;;;;;;5071929;28;20201;-67
2022/02/11 00:18:54;;;;;;;5.10;4.60;;;6.70;99.90;;;;;;5072304;28;20209;-67
2022/02/11 00:21:21;;;;;;;4.97;3.77;;;6.70;99.90;;;;;;5070884;28;20221;-68
2022/02/11 00:23:48;;;;;;;5.47;3.33;;;6.70;99.90;;;;;;5072171;28;20221;-68
2022/02/11 00:26:17;;;;;;;3.60;3.30;;;6.70;99.90;;;;;;5068806;28;20530;-67
2022/02/11 00:31:49;;;;;;;4.80;3.40;;;6.60;99.90;;;;;;5072117;28;20227;-68
2022/02/11 00:34:17;;;;;;;3.63;2.73;;;6.60;99.90;;;;;;5080153;28;20236;-67
2022/02/11 00:36:51;;;;;;;3.03;2.60;;;6.50;99.90;;;;;;5071529;28;20301;-68
2022/02/11 00:39:44;;;;;;;3.20;2.63;;;6.50;99.90;;;;;;5078359;28;20200;-67
2022/02/11 00:43:25;;;;;;;2.50;2.30;;;6.40;99.90;;;;;;5076315;28;20705;-67
2022/02/11 00:45:48;;;;;;;3.53;3.00;;;6.40;99.90;;;;;;5079596;28;20201;-68
2022/02/11 01:02:14;;;;;;;3.47;2.67;;;6.40;99.90;;;;;;5065630;28;20334;-68
2022/02/11 01:04:41;;;;;;;3.40;2.30;;;6.30;99.90;;;;;;5071830;28;20201;-68
2022/02/11 01:07:08;;;;;;;3.63;2.73;;;6.30;99.90;;;;;;5083367;28;20306;-68
2022/02/11 01:09:35;;;;;;;3.40;2.50;;;6.30;99.90;;;;;;5080672;28;20212;-68
2022/02/11 01:12:05;;;;;;;3.57;2.43;;;6.30;99.90;;;;;;5078375;28;20250;-69
2022/02/11 01:14:36;;;;;;;2.50;2.10;;;6.20;99.90;;;;;;5074490;28;20197;-67
2022/02/11 01:17:12;;;;;;;4.23;2.23;;;6.20;99.90;;;;;;5068718;28;20821;-68
2022/02/11 01:19:48;;;;;;;2.40;2.00;;;6.20;99.90;;;;;;5077817;28;20556;-66
2022/02/11 01:22:25;;;;;;;3.53;2.23;;;6.20;99.90;;;;;;5068917;28;20246;-66
2022/02/11 01:25:09;;;;;;;5.27;2.30;;;6.20;99.90;;;;;;5073071;28;20240;-67
2022/02/11 01:27:43;;;;;;;3.23;2.37;;;6.10;99.90;;;;;;5076880;28;20545;-66
2022/02/11 01:30:37;;;;;;;3.60;2.30;;;6.20;99.90;;;;;;5076859;28;20672;-67
2022/02/11 01:33:31;;;;;;;2.77;2.23;;;6.10;99.90;;;;;;5071539;28;20568;-68
2022/02/11 01:36:08;;;;;;;3.03;2.37;;;6.20;99.90;;;;;;5068644;28;20209;-68
2022/02/11 01:38:58;;;;;;;4.87;2.73;;;6.20;99.90;;;;;;5063847;28;20201;-67
2022/02/11 01:44:52;;;;;;;5.57;3.20;;;6.20;99.90;;;;;;5060222;28;20304;-68
2022/02/11 01:50:40;;;;;;;4.23;3.13;;;6.10;99.90;;;;;;5040436;28;20244;-67
2022/02/11 01:53:17;;;;;;;3.83;3.00;;;6.10;99.90;;;;;;5067965;28;20205;-67
2022/02/11 01:56:05;;;;;;;5.13;3.23;;;6.10;99.90;;;;;;5068118;28;20212;-67
2022/02/11 02:01:46;;;;;;;4.70;3.03;;;6.10;99.90;;;;;;5069890;28;20211;-66
2022/02/11 02:04:56;;;;;;;4.07;3.50;;;6.00;99.90;;;;;;5078219;28;20701;-66
2022/02/11 02:24:02;;;;;;;5.63;4.10;;;5.90;99.90;;;;;;5060313;28;20221;-66
2022/02/11 02:26:46;;;;;;;5.27;4.17;;;5.90;99.90;;;;;;5074867;28;20247;-65
2022/02/11 02:32:32;;;;;;;5.30;3.80;;;5.80;99.90;;;;;;5074688;28;20200;-67
2022/02/11 02:35:29;;;;;;;6.23;3.67;;;5.80;99.90;;;;;;5074823;28;20661;-66
2022/02/11 02:38:22;;;;;;;4.60;3.77;;;5.80;99.90;;;;;;5067431;28;20245;-66
2022/02/11 02:57:44;;;;;;;5.60;3.43;;;5.70;99.90;;;;;;5012240;28;20238;-67
2022/02/11 03:00:39;;;;;;;6.57;3.80;;;5.70;99.90;;;;;;5012135;28;20207;-67
2022/02/11 03:50:15;;;;;;;7.40;5.57;;;5.20;99.90;;;;;;5068601;28;20247;-66
2022/02/11 03:58:43;;;;;;;10.10;6.03;;;5.20;99.90;;;;;;5086881;28;20700;-66
2022/02/11 04:23:39;;;;;;;8.33;5.63;;;5.10;99.90;;;;;;5028320;28;20287;-66
2022/02/11 04:56:25;;;;;;;6.17;4.93;;;5.10;99.90;;;;;;5064757;28;20227;-67
2022/02/11 05:01:40;;;;;;;9.27;5.13;;;5.10;99.90;;;;;;5073079;28;20632;-67
2022/02/11 05:04:07;;;;;;;9.90;5.27;;;5.10;99.90;;;;;;5072178;28;20223;-67
2022/02/11 05:06:34;;;;;;;8.17;5.50;;;5.10;99.90;;;;;;5071543;28;20639;-67
2022/02/11 05:09:02;;;;;;;9.97;5.50;;;5.10;99.90;;;;;;5086516;28;20215;-66
2022/02/11 05:11:30;;;;;;;8.50;5.30;;;5.10;99.90;;;;;;5072376;28;20205;-66
2022/02/11 05:13:58;;;;;;;11.90;5.90;;;5.20;99.90;;;;;;5065750;28;20254;-66
2022/02/11 05:16:25;;;;;;;11.20;6.27;;;5.00;99.90;;;;;;5072513;28;20209;-66
2022/02/11 05:18:52;;;;;;;9.47;5.67;;;5.10;99.90;;;;;;5072862;28;20750;-66
2022/02/11 05:21:19;;;;;;;8.47;5.27;;;5.00;99.90;;;;;;5068273;28;20264;-66
2022/02/11 05:23:45;;;;;;;8.87;5.93;;;5.10;99.90;;;;;;5072449;28;20227;-66
2022/02/11 05:26:12;;;;;;;7.80;5.70;;;5.10;99.90;;;;;;5072277;28;20678;-65
2022/02/11 05:28:40;;;;;;;9.47;5.70;;;5.00;99.90;;;;;;5073125;28;20205;-65
2022/02/11 05:31:07;;;;;;;9.70;6.10;;;5.00;99.90;;;;;;5071291;28;20201;-65
2022/02/11 05:33:34;;;;;;;9.47;6.10;;;5.00;99.90;;;;;;5071853;28;20205;-65
2022/02/11 05:36:02;;;;;;;9.40;6.53;;;5.10;99.90;;;;;;5072389;28;20280;-67
2022/02/11 05:38:29;;;;;;;9.60;5.93;;;5.00;99.90;;;;;;5076076;28;20224;-65
2022/02/11 05:40:56;;;;;;;7.77;4.90;;;5.10;99.90;;;;;;5072434;28;20198;-65
2022/02/11 05:43:23;;;;;;;10.07;6.23;;;5.10;99.90;;;;;;5073723;28;20726;-66
2022/02/11 05:45:51;;;;;;;7.00;5.20;;;5.00;99.90;;;;;;5075192;28;20623;-66
2022/02/11 05:48:18;;;;;;;8.20;5.23;;;5.00;99.90;;;;;;5076789;28;20614;-66
2022/02/11 05:50:45;;;;;;;9.13;5.77;;;5.00;99.90;;;;;;5072472;28;20245;-66
2022/02/11 05:53:12;;;;;;;7.67;5.23;;;5.00;99.90;;;;;;5073328;28;20212;-66
2022/02/11 05:55:39;;;;;;;6.33;5.20;;;5.10;99.90;;;;;;5079164;28;20208;-66
2022/02/11 05:58:05;;;;;;;8.00;5.67;;;5.40;99.90;;;;;;5087954;28;20262;-66
2022/02/11 06:00:32;;;;;;;7.60;5.77;;;5.10;99.90;;;;;;5074129;28;20636;-65
2022/02/11 06:03:01;;;;;;;9.33;5.30;;;5.10;99.90;;;;;;5070478;28;20209;-66
2022/02/11 06:05:27;;;;;;;9.80;6.10;;;5.20;99.90;;;;;;5081618;28;20203;-70
2022/02/11 06:07:54;;;;;;;8.33;5.70;;;5.20;99.90;;;;;;5078185;28;20209;-69
2022/02/11 06:10:21;;;;;;;8.80;4.93;;;5.20;99.90;;;;;;5082793;28;20215;-69
2022/02/11 06:12:48;;;;;;;9.23;6.20;;;5.20;99.90;;;;;;5075511;28;20201;-70
2022/02/11 06:15:15;;;;;;;10.57;5.23;;;5.20;99.90;;;;;;5073886;28;20229;-67
2022/02/11 06:17:42;;;;;;;8.70;5.97;;;5.20;99.90;;;;;;5079405;28;20374;-68
2022/02/11 06:20:11;;;;;;;8.13;5.70;;;5.20;99.90;;;;;;5081566;28;20424;-68
2022/02/11 06:22:39;;;;;;;8.13;6.13;;;5.20;99.90;;;;;;5081753;28;20262;-67
2022/02/11 06:25:07;;;;;;;10.27;6.37;;;5.20;99.90;;;;;;5088465;28;20590;-67
2022/02/11 06:27:33;;;;;;;10.40;6.03;;;5.20;99.90;;;;;;5083488;28;20221;-66
2022/02/11 06:30:00;;;;;;;9.37;5.70;;;5.20;99.90;;;;;;5079165;28;20208;-67
2022/02/11 06:32:27;;;;;;;9.90;6.47;;;5.20;99.90;;;;;;5083017;28;20273;-67
2022/02/11 06:34:56;;;;;;;9.93;6.17;;;5.20;99.90;;;;;;5069149;28;20305;-67
2022/02/11 06:37:24;;;;;;;9.10;6.07;;;5.20;99.90;;;;;;5089955;28;20232;-71
2022/02/11 06:39:51;;;;;;;10.23;6.47;;;5.20;99.90;;;;;;5071687;28;20649;-68
2022/02/11 06:42:18;;;;;;;12.33;7.27;;;5.20;99.90;;;;;;5075076;28;20269;-71
2022/02/11 06:44:45;;;;;;;9.80;7.27;;;5.30;99.90;;;;;;5084832;28;20232;-72
2022/02/11 06:47:12;;;;;;;9.83;6.50;;;5.30;99.90;;;;;;5074268;28;20205;-70
2022/02/11 06:49:39;;;;;;;8.87;5.67;;;5.30;99.90;;;;;;5078058;28;20646;-69
2022/02/11 06:52:06;;;;;;;10.80;6.07;;;5.40;99.90;;;;;;5083099;28;20212;-70
2022/02/11 06:54:35;;;;;;;10.13;7.20;;;5.30;99.90;;;;;;5072697;28;20197;-68
2022/02/11 06:57:02;;;;;;;9.17;6.10;;;5.40;99.90;;;;;;5076410;28;20220;-70
2022/02/11 06:59:29;;;;;;;8.30;6.37;;;5.40;99.90;;;;;;5073196;28;20681;-70
2022/02/11 07:01:56;;;;;;;10.33;6.77;;;5.40;99.90;;;;;;5076086;28;20241;-71
2022/02/11 07:04:23;;;;;;;8.90;7.13;;;5.40;99.90;;;;;;5068445;28;20470;-71
2022/02/11 07:06:50;;;;;;;9.63;7.03;;;5.50;99.90;;;;;;5069322;28;20264;-69
2022/02/11 07:09:17;;;;;;;11.77;6.87;;;5.50;99.90;;;;;;5068293;28;20201;-71
2022/02/11 07:11:45;;;;;;;9.57;7.00;;;5.60;99.90;;;;;;5076376;28;20292;-68
2022/02/11 07:14:12;;;;;;;12.23;6.87;;;5.60;99.90;;;;;;5072071;28;20268;-69
2022/02/11 07:16:39;;;;;;;10.27;6.73;;;5.60;99.90;;;;;;5075440;28;20212;-69
2022/02/11 07:19:06;;;;;;;10.53;6.53;;;5.60;99.90;;;;;;5064568;28;20279;-69
2022/02/11 07:21:33;;;;;;;11.53;6.83;;;5.60;99.90;;;;;;5067465;28;20229;-70
2022/02/11 07:24:00;;;;;;;14.37;7.50;;;5.60;99.90;;;;;;5066117;28;20221;-69
2022/02/11 07:26:27;;;;;;;10.43;6.93;;;5.60;99.90;;;;;;5070038;28;20225;-70
2022/02/11 07:28:55;;;;;;;13.20;6.90;;;5.60;99.90;;;;;;5073268;28;20220;-69
2022/02/11 07:31:22;;;;;;;12.60;7.70;;;5.60;99.90;;;;;;5073666;28;20201;-71
2022/02/11 07:33:49;;;;;;;9.17;6.73;;;5.60;99.90;;;;;;5074003;28;20619;-69
2022/02/11 07:36:16;;;;;;;12.43;8.00;;;5.60;99.90;;;;;;5070277;28;20644;-69
2022/02/11 07:38:42;;;;;;;10.37;7.20;;;5.60;99.90;;;;;;5067953;28;20742;-69
2022/02/11 07:41:09;;;;;;;12.73;7.97;;;5.60;99.90;;;;;;5069465;28;20233;-70
2022/02/11 07:43:36;;;;;;;12.13;7.67;;;5.70;99.90;;;;;;5072383;28;20751;-70
2022/02/11 07:46:05;;;;;;;11.73;6.87;;;5.70;99.90;;;;;;5073402;28;20292;-69
2022/02/11 07:48:32;;;;;;;11.50;7.33;;;5.70;99.90;;;;;;5070657;28;20577;-70
2022/02/11 07:51:00;;;;;;;10.03;7.50;;;5.70;99.90;;;;;;5073029;28;20205;-70
2022/02/11 07:53:27;;;;;;;13.53;7.70;;;5.70;99.90;;;;;;5071767;28;20211;-70
2022/02/11 07:55:54;;;;;;;9.93;6.73;;;5.80;99.90;;;;;;5073158;28;20686;-69
2022/02/11 07:58:24;;;;;;;9.93;6.87;;;5.70;99.90;;;;;;5072866;28;20267;-70
2022/02/11 08:00:51;;;;;;;12.07;7.73;;;5.60;99.90;;;;;;5069876;28;20214;-70
2022/02/11 08:03:19;;;;;;;10.53;7.53;;;5.60;99.90;;;;;;5062095;28;20204;-69
2022/02/11 08:05:46;;;;;;;8.80;7.50;;;5.70;99.90;;;;;;5074683;28;20225;-71
2022/02/11 08:08:13;;;;;;;14.87;7.83;;;5.70;99.90;;;;;;5069630;28;20205;-70
2022/02/11 08:10:40;;;;;;;11.50;7.83;;;5.60;99.90;;;;;;5069848;28;20229;-70
2022/02/11 08:13:07;;;;;;;11.07;8.50;;;5.70;99.90;;;;;;5069005;28;20205;-70
2022/02/11 08:15:34;;;;;;;12.90;8.77;;;5.80;99.90;;;;;;5071397;28;20248;-72
2022/02/11 08:18:01;;;;;;;14.70;9.40;;;5.80;99.90;;;;;;5071411;28;20237;-70
2022/02/11 08:20:29;;;;;;;12.47;8.23;;;5.70;99.90;;;;;;5073043;28;20240;-70
2022/02/11 08:22:57;;;;;;;11.80;8.43;;;5.70;99.90;;;;;;5069449;28;20247;-69
2022/02/11 08:25:24;;;;;;;14.37;9.70;;;5.70;99.90;;;;;;5072345;28;20237;-69
2022/02/11 08:27:54;;;;;;;11.80;8.80;;;5.70;99.90;;;;;;5074045;28;20300;-69
2022/02/11 08:30:21;;;;;;;12.27;8.23;;;5.70;99.90;;;;;;5074543;28;20201;-70
2022/02/11 08:32:48;;;;;;;12.93;8.83;;;5.70;99.90;;;;;;5069794;28;20209;-70
2022/02/11 08:35:15;;;;;;;15.60;9.63;;;5.70;99.90;;;;;;5064891;28;20264;-69
2022/02/11 08:37:43;;;;;;;13.80;9.30;;;5.80;99.90;;;;;;5075328;28;20245;-70
2022/02/11 08:40:11;;;;;;;15.67;10.87;;;5.80;99.90;;;;;;5077788;28;20233;-68
2022/02/11 08:42:38;;;;;;;12.33;10.03;;;5.80;99.90;;;;;;5074652;28;20671;-70
2022/02/11 08:45:07;;;;;;;15.60;10.60;;;5.80;99.90;;;;;;5081511;28;20677;-69
2022/02/11 08:47:34;;;;;;;14.93;10.13;;;5.90;99.90;;;;;;5073191;28;20304;-70
2022/02/11 08:50:02;;;;;;;16.47;10.63;;;5.80;99.90;;;;;;5073712;28;20240;-70
2022/02/11 08:52:28;;;;;;;13.67;9.87;;;5.90;99.90;;;;;;5080324;28;20713;-69
2022/02/11 08:54:57;;;;;;;13.57;9.83;;;5.90;99.90;;;;;;5083920;28;20296;-69
2022/02/11 08:57:24;;;;;;;15.13;10.13;;;6.00;99.90;;;;;;5078573;28;20228;-68
2022/02/11 08:59:50;;;;;;;13.57;9.67;;;6.00;99.90;;;;;;5074164;28;20236;-68
2022/02/11 09:02:17;;;;;;;13.97;9.87;;;6.10;99.90;;;;;;5074758;28;20218;-68
2022/02/11 09:04:44;;;;;;;13.63;9.60;;;6.10;99.90;;;;;;5085225;28;20244;-68
2022/02/11 09:07:11;;;;;;;13.77;9.83;;;6.10;99.90;;;;;;5076652;28;20288;-68
2022/02/11 09:09:39;;;;;;;13.07;10.03;;;6.20;99.90;;;;;;5069505;28;20650;-69
2022/02/11 09:12:08;;;;;;;15.37;10.63;;;6.20;99.90;;;;;;5078369;28;20615;-70
2022/02/11 09:14:35;;;;;;;18.90;10.73;;;6.30;99.90;;;;;;5073686;28;20275;-68
2022/02/11 09:17:02;;;;;;;14.37;9.27;;;6.30;99.90;;;;;;5075926;28;20303;-69
2022/02/11 09:19:29;;;;;;;14.53;9.43;;;6.30;99.90;;;;;;5080384;28;20316;-69
2022/02/11 09:21:56;;;;;;;12.87;9.43;;;6.40;99.90;;;;;;5086606;28;20315;-68
2022/02/11 09:24:23;;;;;;;12.57;8.57;;;6.40;99.90;;;;;;5072612;28;20221;-68
2022/02/11 09:26:50;;;;;;;15.63;8.63;;;6.40;99.90;;;;;;5076409;28;20628;-68
2022/02/11 09:29:18;;;;;;;15.03;9.93;;;6.40;99.90;;;;;;5081417;28;20263;-69
2022/02/11 09:31:45;;;;;;;15.40;10.43;;;6.40;99.90;;;;;;5065815;28;20701;-68
2022/02/11 09:34:12;;;;;;;13.13;9.17;;;6.40;99.90;;;;;;5076753;28;20336;-69
2022/02/11 09:36:40;;;;;;;15.93;9.80;;;6.50;99.90;;;;;;5080303;28;20236;-69
2022/02/11 09:39:09;;;;;;;13.73;8.63;;;6.50;99.90;;;;;;5072955;28;20323;-70
2022/02/11 09:41:37;;;;;;;13.33;8.20;;;6.50;99.90;;;;;;5077406;28;20260;-70
2022/02/11 09:44:05;;;;;;;11.77;8.60;;;6.50;99.90;;;;;;5083364;28;20731;-70
2022/02/11 09:46:36;;;;;;;11.30;8.17;;;6.50;99.90;;;;;;5082073;28;20640;-71
2022/02/11 09:49:03;;;;;;;13.80;8.57;;;6.50;99.90;;;;;;5077738;28;20245;-71
2022/02/11 09:51:31;;;;;;;11.13;7.20;;;6.50;99.90;;;;;;5073670;28;20564;-72
2022/02/11 09:53:57;;;;;;;12.07;7.67;;;6.50;99.90;;;;;;5070407;28;20220;-69
2022/02/11 09:56:25;;;;;;;11.77;7.93;;;5.80;99.90;;;;;;5075688;28;20621;-71
2022/02/11 09:58:53;;;;;;;12.23;7.60;;;6.50;99.90;;;;;;5072110;28;20216;-71
2022/02/11 10:01:21;;;;;;;11.63;7.77;;;6.50;99.90;;;;;;5073031;28;20729;-71
2022/02/11 10:04:11;;;;;;;12.70;8.27;;;6.60;99.90;;;;;;5082249;28;20229;-71
2022/02/11 10:06:39;;;;;;;13.20;8.43;;;6.60;99.90;;;;;;5069939;28;20231;-72
2022/02/11 10:09:06;;;;;;;14.13;8.53;;;6.80;99.90;;;;;;5077664;28;20203;-71
2022/02/11 10:11:34;;;;;;;14.40;7.57;;;6.80;99.90;;;;;;5074030;28;20277;-72
2022/02/11 10:14:20;;;;;;;11.63;7.80;;;6.80;99.90;;;;;;5068232;28;20290;-71
2022/02/11 10:17:02;;;;;;;11.17;6.33;;;6.80;99.90;;;;;;5067363;28;20200;-69
2022/02/11 10:19:44;;;;;;;9.87;6.63;;;6.80;99.90;;;;;;5070347;28;20273;-69
2022/02/11 10:22:14;;;;;;;10.70;6.20;;;6.80;99.90;;;;;;5078313;28;20685;-69
2022/02/11 10:24:42;;;;;;;14.77;7.50;;;6.80;99.90;;;;;;5069088;28;20230;-68
2022/02/11 10:27:20;;;;;;;12.10;7.57;;;6.70;99.90;;;;;;5070637;28;20196;-70
2022/02/11 10:29:48;;;;;;;10.20;6.90;;;6.70;99.90;;;;;;5076767;28;20204;-68
2022/02/11 10:32:15;;;;;;;10.13;6.10;;;6.70;99.90;;;;;;5087713;28;20266;-68
2022/02/11 10:34:51;;;;;;;11.13;7.33;;;6.70;99.90;;;;;;5085941;28;20254;-68
2022/02/11 10:37:18;;;;;;;14.33;8.37;;;6.70;99.90;;;;;;5083629;28;20336;-67
2022/02/11 10:39:56;;;;;;;11.63;7.87;;;6.70;99.90;;;;;;5085195;28;20209;-67
2022/02/11 10:42:41;;;;;;;9.20;6.97;;;6.70;99.90;;;;;;5072279;28;20624;-69
2022/02/11 10:45:26;;;;;;;10.13;6.57;;;6.60;99.90;;;;;;5080419;28;20232;-69
2022/02/11 10:48:08;;;;;;;17.93;7.53;;;6.60;99.90;;;;;;5083132;28;20204;-68
2022/02/11 10:50:37;;;;;;;10.23;7.13;;;6.60;99.90;;;;;;5075295;28;20291;-68
2022/02/11 10:53:04;;;;;;;10.80;7.43;;;6.60;99.90;;;;;;5073987;28;20205;-70
2022/02/11 10:55:30;;;;;;;8.77;6.90;;;6.60;99.90;;;;;;5080291;28;20201;-69
2022/02/11 10:57:59;;;;;;;10.30;7.77;;;6.60;99.90;;;;;;5084672;28;20631;-68
2022/02/11 11:00:27;;;;;;;11.03;7.70;;;6.60;99.90;;;;;;5076458;28;20255;-68
2022/02/11 11:02:54;;;;;;;11.93;7.50;;;6.60;99.90;;;;;;5070838;28;20216;-68
2022/02/11 11:05:23;;;;;;;10.50;7.30;;;6.60;99.90;;;;;;5073299;28;20248;-69
2022/02/11 11:07:52;;;;;;;9.77;6.60;;;6.50;99.90;;;;;;5074634;28;20256;-68
2022/02/11 11:10:19;;;;;;;9.33;6.87;;;6.50;99.90;;;;;;5079008;28;20205;-68
2022/02/11 11:12:53;;;;;;;11.17;6.90;;;6.50;99.90;;;;;;5085539;28;20259;-70
2022/02/11 11:15:22;;;;;;;9.27;6.07;;;6.40;99.90;;;;;;5072756;28;20200;-69
2022/02/11 11:17:51;;;;;;;8.10;5.60;;;6.40;99.90;;;;;;5068616;28;20210;-70
2022/02/11 11:20:21;;;;;;;8.80;5.03;;;6.40;99.90;;;;;;5077937;28;20232;-69
2022/02/11 11:22:53;;;;;;;8.67;5.30;;;6.40;99.90;;;;;;5082322;28;20205;-69
2022/02/11 11:25:20;;;;;;;5.73;4.20;;;6.30;99.90;;;;;;5074949;28;20735;-69
2022/02/11 11:27:51;;;;;;;9.37;4.83;;;6.40;99.90;;;;;;5071604;28;20247;-68
2022/02/11 11:30:29;;;;;;;5.53;3.73;;;6.30;99.90;;;;;;5075911;28;20618;-68
2022/02/11 11:33:24;;;;;;;5.80;4.60;;;6.20;99.90;;;;;;5069405;28;20208;-68
2022/02/11 11:36:21;;;;;;;7.30;3.40;;;6.20;99.90;;;;;;5065023;28;20686;-68
2022/02/11 11:38:57;;;;;;;4.13;3.23;;;6.20;99.90;;;;;;5024561;28;20195;-69
2022/02/11 11:41:26;;;;;;;4.93;3.57;;;6.20;99.90;;;;;;5064077;28;20208;-69
2022/02/11 11:43:55;;;;;;;6.27;3.60;;;6.20;99.90;;;;;;5069307;28;20256;-69
2022/02/11 11:46:36;;;;;;;9.00;4.77;;;6.20;99.90;;;;;;5070112;28;20840;-69
2022/02/11 11:49:10;;;;;;;4.73;2.90;;;6.20;99.90;;;;;;5067735;28;20312;-68
2022/02/11 11:52:06;;;;;;;6.83;3.40;;;6.20;99.90;;;;;;5066053;28;20200;-67
2022/02/11 11:54:35;;;;;;;5.43;3.37;;;6.10;99.90;;;;;;5075283;28;20229;-68
2022/02/11 11:57:04;;;;;;;4.17;3.47;;;6.10;99.90;;;;;;5072954;28;20244;-68
2022/02/11 11:59:33;;;;;;;6.33;4.23;;;6.00;99.90;;;;;;5068209;28;20201;-69
2022/02/11 12:02:01;;;;;;;3.80;3.10;;;6.10;99.90;;;;;;5069101;28;20205;-70
2022/02/11 12:04:30;;;;;;;6.57;3.63;;;6.10;99.90;;;;;;5073462;28;20212;-69
2022/02/11 12:06:59;;;;;;;5.57;3.80;;;6.10;99.90;;;;;;5068806;28;20224;-69
2022/02/11 12:09:27;;;;;;;7.87;4.27;;;6.10;99.90;;;;;;5077498;28;20247;-69
2022/02/11 12:12:01;;;;;;;7.67;5.23;;;6.00;99.90;;;;;;5070625;28;20213;-69
2022/02/11 12:14:29;;;;;;;9.87;4.10;;;6.00;99.90;;;;;;5071542;28;20201;-69
2022/02/11 12:16:57;;;;;;;5.03;3.73;;;6.00;99.90;;;;;;5076054;28;20201;-68
2022/02/11 12:19:24;;;;;;;8.33;4.30;;;5.90;99.90;;;;;;5074528;28;20653;-69
2022/02/11 12:21:51;;;;;;;6.63;4.00;;;5.80;99.90;;;;;;5076217;28;20301;-68
2022/02/11 12:27:21;;;;;;;5.37;4.00;;;5.80;99.90;;;;;;5050126;28;20234;-68
2022/02/11 12:29:49;;;;;;;5.17;3.90;;;5.80;99.90;;;;;;5067390;28;20665;-67
2022/02/11 12:32:17;;;;;;;3.97;3.50;;;5.80;99.90;;;;;;5066754;28;20205;-67
2022/02/11 12:34:52;;;;;;;6.97;3.90;;;5.70;99.90;;;;;;5078642;28;20637;-69
2022/02/11 12:37:20;;;;;;;6.47;3.93;;;5.70;99.90;;;;;;5077752;28;20781;-66
2022/02/11 12:39:48;;;;;;;7.07;4.00;;;5.60;99.90;;;;;;5072794;28;20241;-66
2022/02/11 12:42:20;;;;;;;9.57;4.60;;;5.60;99.90;;;;;;5072743;28;20229;-68
2022/02/11 12:44:47;;;;;;;5.20;3.77;;;5.50;99.90;;;;;;5071811;28;20221;-72
2022/02/11 12:47:15;;;;;;;5.33;3.70;;;5.40;99.90;;;;;;5074138;28;20663;-69
2022/02/11 12:49:47;;;;;;;3.73;3.33;;;5.40;99.90;;;;;;5071595;28;20213;-71
2022/02/11 12:52:19;;;;;;;4.20;3.20;;;5.40;99.90;;;;;;5068667;28;20591;-69
2022/02/11 12:55:07;;;;;;;5.73;3.30;;;5.40;99.90;;;;;;5072571;28;20205;-70
2022/02/11 12:57:36;;;;;;;6.13;3.70;;;5.40;99.90;;;;;;5074063;28;20678;-72
2022/02/11 13:00:05;;;;;;;5.80;3.63;;;5.40;99.90;;;;;;5065852;28;20209;-72
2022/02/11 13:02:34;;;;;;;4.80;3.63;;;5.30;99.90;;;;;;5070535;28;20308;-70
2022/02/11 13:05:06;;;;;;;4.80;3.73;;;5.40;99.90;;;;;;5072920;28;20209;-71
2022/02/11 13:07:35;;;;;;;5.23;3.60;;;5.40;99.90;;;;;;5081839;28;20205;-71
2022/02/11 13:10:02;;;;;;;5.97;3.83;;;5.40;99.90;;;;;;5071640;28;20215;-71
2022/02/11 13:12:39;;;;;;;4.40;3.63;;;5.40;99.90;;;;;;5069950;28;20296;-71
2022/02/11 13:15:08;;;;;;;5.70;3.40;;;5.40;99.90;;;;;;5069973;28;20700;-70
2022/02/11 13:17:35;;;;;;;7.83;3.57;;;5.30;99.90;;;;;;5073580;28;20255;-71
2022/02/11 13:20:11;;;;;;;5.43;4.03;;;5.40;99.90;;;;;;5075706;28;20248;-72
2022/02/11 13:22:40;;;;;;;6.87;3.97;;;5.30;99.90;;;;;;5075376;28;20359;-70
2022/02/11 13:25:07;;;;;;;4.80;3.70;;;5.20;99.90;;;;;;5071510;28;20247;-70
2022/02/11 13:27:48;;;;;;;5.23;3.80;;;5.20;99.90;;;;;;5076275;28;20672;-72
2022/02/11 13:30:17;;;;;;;8.27;4.63;;;5.10;99.90;;;;;;5067931;28;20336;-72
2022/02/11 13:32:44;;;;;;;6.50;3.87;;;5.10;99.90;;;;;;5070468;28;20297;-71
2022/02/11 13:35:11;;;;;;;4.83;3.87;;;5.10;99.90;;;;;;5075718;28;20574;-70
2022/02/11 13:37:40;;;;;;;5.83;4.37;;;5.10;99.90;;;;;;5070520;28;20335;-72
2022/02/11 13:40:26;;;;;;;5.67;4.17;;;5.10;99.90;;;;;;5083046;28;20288;-70
2022/02/11 13:42:57;;;;;;;5.33;3.93;;;5.00;99.90;;;;;;5069260;28;20273;-72
2022/02/11 13:45:26;;;;;;;5.67;3.73;;;5.10;99.90;;;;;;5073639;28;20705;-70
2022/02/11 13:48:06;;;;;;;7.37;4.90;;;5.00;99.90;;;;;;5075644;28;20210;-70
2022/02/11 13:50:54;;;;;;;4.10;3.40;;;5.00;99.90;;;;;;5062904;28;20212;-72
2022/02/11 13:53:32;;;;;;;4.30;3.60;;;4.90;99.90;;;;;;5066155;28;20202;-72
2022/02/11 13:55:59;;;;;;;4.47;3.53;;;4.80;99.90;;;;;;5072100;28;20345;-72
2022/02/11 13:58:28;;;;;;;4.07;3.40;;;4.80;99.90;;;;;;5093000;28;20243;-70
2022/02/11 14:00:55;;;;;;;3.47;3.03;;;4.70;99.90;;;;;;5071573;28;20681;-71
2022/02/11 14:03:25;;;;;;;7.47;4.47;;;4.70;99.90;;;;;;5068710;28;20272;-71
2022/02/11 14:05:55;;;;;;;4.13;3.30;;;4.70;99.90;;;;;;5072919;28;20257;-71
2022/02/11 14:08:23;;;;;;;5.63;3.73;;;4.60;99.90;;;;;;5077884;28;20569;-71
2022/02/11 14:11:09;;;;;;;4.97;4.20;;;4.60;99.90;;;;;;5073565;28;20205;-70
2022/02/11 14:13:38;;;;;;;6.10;3.97;;;4.60;99.90;;;;;;5076945;28;20212;-71
2022/02/11 14:16:06;;;;;;;5.20;3.47;;;4.60;99.90;;;;;;5077117;28;20284;-70
2022/02/11 14:18:33;;;;;;;6.33;3.93;;;4.60;99.90;;;;;;5076615;28;20208;-72
2022/02/11 14:21:00;;;;;;;6.27;3.67;;;4.70;99.90;;;;;;5075947;28;20232;-70
2022/02/11 14:23:27;;;;;;;5.73;4.20;;;4.60;99.90;;;;;;5069414;28;20213;-71
2022/02/11 14:25:55;;;;;;;3.70;3.40;;;4.70;99.90;;;;;;5080238;28;20840;-72
2022/02/11 14:28:25;;;;;;;7.47;3.73;;;4.70;99.90;;;;;;5075883;28;20255;-70
2022/02/11 14:30:54;;;;;;;6.70;4.10;;;4.70;99.90;;;;;;5084737;28;20212;-71
2022/02/11 14:33:22;;;;;;;4.80;3.53;;;4.70;99.90;;;;;;5081878;28;20213;-72
2022/02/11 14:35:50;;;;;;;7.07;3.60;;;4.60;99.90;;;;;;5077036;28;20210;-71
2022/02/11 14:38:17;;;;;;;4.87;3.83;;;4.50;99.90;;;;;;5084667;28;20307;-72
2022/02/11 14:43:25;;;;;;;8.10;4.30;;;4.50;99.90;;;;;;5075357;28;20207;-72
2022/02/11 14:45:54;;;;;;;5.73;3.43;;;4.50;99.90;;;;;;5076669;28;20232;-72
2022/02/11 14:48:21;;;;;;;7.97;3.47;;;4.40;99.90;;;;;;5076380;28;20209;-71
2022/02/11 14:50:48;;;;;;;3.90;3.40;;;4.30;99.90;;;;;;5078194;28;20205;-73
2022/02/11 14:53:15;;;;;;;5.67;3.40;;;4.30;99.90;;;;;;5076263;28;20201;-70
2022/02/11 14:55:42;;;;;;;4.67;2.70;;;4.20;99.90;;;;;;5073505;28;20259;-71
2022/02/11 14:58:09;;;;;;;5.27;2.87;;;4.20;99.90;;;;;;5075117;28;20625;-71
2022/02/11 15:00:36;;;;;;;4.17;2.60;;;4.20;99.90;;;;;;5082246;28;20596;-71
2022/02/11 15:03:05;;;;;;;3.30;2.63;;;4.20;99.90;;;;;;5077639;28;20662;-72
2022/02/11 15:05:32;;;;;;;3.83;2.90;;;4.20;99.90;;;;;;5078387;28;20667;-71
2022/02/11 15:07:59;;;;;;;7.00;3.57;;;4.10;99.90;;;;;;5072651;28;20283;-71
2022/02/11 15:10:26;;;;;;;5.43;4.00;;;4.10;99.90;;;;;;5073057;28;20201;-70
2022/02/11 15:12:53;;;;;;;7.57;4.80;;;4.10;99.90;;;;;;5077340;28;20228;-71
2022/02/11 15:15:20;;;;;;;8.67;4.70;;;4.10;99.90;;;;;;5078174;28;20549;-71
2022/02/11 15:17:47;;;;;;;5.60;4.43;;;4.10;99.90;;;;;;5076560;28;20241;-71
2022/02/11 15:20:15;;;;;;;7.13;4.67;;;4.10;99.90;;;;;;5078046;28;20780;-71
2022/02/11 15:22:42;;;;;;;7.47;4.87;;;4.00;99.90;;;;;;5080334;28;20204;-71
2022/02/11 15:25:10;;;;;;;8.77;4.27;;;4.00;99.90;;;;;;5076992;28;20571;-72
2022/02/11 15:27:36;;;;;;;8.27;5.33;;;3.90;99.90;;;;;;5077256;28;20228;-71
2022/02/11 15:30:04;;;;;;;7.83;5.17;;;3.90;99.90;;;;;;5076352;28;20236;-70
2022/02/11 15:32:31;;;;;;;6.97;4.60;;;3.80;99.90;;;;;;5078061;28;20669;-71
2022/02/11 15:34:58;;;;;;;7.40;5.00;;;3.80;99.90;;;;;;5066710;28;20206;-71
2022/02/11 15:37:26;;;;;;;7.93;4.83;;;3.80;99.90;;;;;;5072549;28;20229;-69
2022/02/11 15:39:53;;;;;;;6.80;4.83;;;3.80;99.90;;;;;;5075762;28;20700;-69
2022/02/11 15:42:20;;;;;;;6.27;4.50;;;3.80;99.90;;;;;;5073844;28;20211;-72
2022/02/11 15:44:47;;;;;;;7.37;4.63;;;3.80;99.90;;;;;;5087030;28;20208;-72
2022/02/11 15:47:14;;;;;;;11.37;5.33;;;3.70;99.90;;;;;;5079216;28;20237;-69
2022/02/11 15:49:41;;;;;;;6.23;4.30;;;3.70;99.90;;;;;;5079244;28;20291;-70
2022/02/11 15:52:09;;;;;;;8.50;4.77;;;3.70;99.90;;;;;;5077093;28;20205;-70
2022/02/11 15:54:37;;;;;;;7.13;4.33;;;3.70;99.90;;;;;;5073844;28;20328;-69
2022/02/11 15:57:05;;;;;;;7.17;4.00;;;3.70;99.90;;;;;;5072682;28;20197;-71
2022/02/11 15:59:32;;;;;;;6.20;4.73;;;3.70;99.90;;;;;;5071975;28;20292;-71
2022/02/11 16:02:00;;;;;;;6.47;4.60;;;3.60;99.90;;;;;;5079465;28;20221;-69
2022/02/11 16:04:29;;;;;;;6.83;5.00;;;3.60;99.90;;;;;;5075543;28;20198;-69
2022/02/11 16:06:56;;;;;;;7.27;5.80;;;3.60;99.90;;;;;;5073537;28;20257;-72
2022/02/11 16:09:22;;;;;;;8.80;6.10;;;3.50;99.90;;;;;;5066816;28;20620;-70